Time;durP1;ratioP1;P1;durP2;ratioP2;P2;SDS_P1;SDS_P2;PMS_P1;PMS_P2;Temp;Humidity;BMP_temperature;BMP_pressure;BME280_temperature;BME280_humidity;BME280_pressure;Samples;Min_cycle;Max_cycle;Signal;HPM_P1;HPM_P2
2022/10/27 00:02:02;;;;;;;9.02;3.08;;;19.70;56.00;;;;;;21164095;28;20048;-59
2022/10/27 00:12:04;;;;;;;10.13;3.30;;;19.70;56.00;;;;;;21163103;28;20043;-60
2022/10/27 00:22:05;;;;;;;9.43;3.00;;;19.70;56.20;;;;;;21162230;28;20095;-63
2022/10/27 00:32:07;;;;;;;7.80;3.15;;;19.70;56.00;;;;;;21162809;28;20071;-60
2022/10/27 00:42:12;;;;;;;10.57;3.45;;;19.60;55.80;;;;;;21176513;28;20135;-59
2022/10/27 00:52:28;;;;;;;8.65;3.75;;;19.60;55.80;;;;;;21177804;28;20154;-59
2022/10/27 01:02:31;;;;;;;9.63;3.85;;;19.60;55.90;;;;;;21177844;28;20415;-61
2022/10/27 01:12:33;;;;;;;7.50;3.67;;;19.60;56.30;;;;;;21177801;28;20075;-59
2022/10/27 01:22:38;;;;;;;7.85;3.38;;;19.60;57.20;;;;;;21176583;28;20047;-59
2022/10/27 01:33:00;;;;;;;10.25;4.00;;;19.40;59.30;;;;;;21176354;28;20097;-60
2022/10/27 01:43:06;;;;;;;11.90;3.67;;;19.30;59.80;;;;;;21173022;28;20135;-58
2022/10/27 01:53:12;;;;;;;8.43;3.78;;;19.20;59.20;;;;;;21172531;28;20083;-60
2022/10/27 02:03:18;;;;;;;6.32;3.05;;;19.00;60.30;;;;;;21173031;28;20047;-58
2022/10/27 02:13:20;;;;;;;10.43;3.95;;;18.90;60.90;;;;;;21171674;28;20084;-60
2022/10/27 02:23:26;;;;;;;10.02;3.33;;;18.70;61.50;;;;;;21153715;28;20424;-59
2022/10/27 02:33:28;;;;;;;12.40;3.60;;;18.60;61.30;;;;;;21170733;28;20047;-60
2022/10/27 02:43:31;;;;;;;7.82;3.20;;;18.50;61.40;;;;;;21169948;28;20487;-60
2022/10/27 02:53:35;;;;;;;7.30;2.80;;;18.40;61.60;;;;;;21151166;28;20083;-60
2022/10/27 03:03:38;;;;;;;7.57;3.47;;;18.30;61.40;;;;;;21167789;28;20052;-59
2022/10/27 03:13:41;;;;;;;5.47;2.40;;;18.20;61.50;;;;;;21166982;28;20059;-60
2022/10/27 03:23:43;;;;;;;6.13;3.03;;;18.20;61.60;;;;;;21166355;28;20078;-59
2022/10/27 03:33:45;;;;;;;8.05;2.90;;;18.10;61.50;;;;;;21147810;28;20142;-60
2022/10/27 03:43:48;;;;;;;10.18;3.22;;;18.00;62.00;;;;;;21164941;28;20047;-59
2022/10/27 03:53:50;;;;;;;10.02;2.80;;;17.90;62.10;;;;;;21164574;28;20085;-60
2022/10/27 04:03:52;;;;;;;6.50;2.88;;;17.90;62.00;;;;;;21164015;28;20059;-59
2022/10/27 04:13:54;;;;;;;9.23;3.65;;;18.00;61.50;;;;;;21162930;28;20059;-59
2022/10/27 04:23:57;;;;;;;11.35;3.63;;;18.10;61.20;;;;;;21162964;28;20081;-59
2022/10/27 04:33:59;;;;;;;10.73;3.33;;;18.20;61.20;;;;;;21163228;28;20513;-61
2022/10/27 04:44:02;;;;;;;13.20;4.33;;;18.10;61.50;;;;;;21161907;28;20443;-60
2022/10/27 04:54:05;;;;;;;7.67;3.53;;;18.00;61.80;;;;;;21161399;28;20044;-59
2022/10/27 05:04:07;;;;;;;8.48;3.50;;;17.90;62.40;;;;;;21162358;28;20043;-61
2022/10/27 05:14:08;;;;;;;7.45;3.58;;;17.90;62.00;;;;;;21161607;28;20048;-58
2022/10/27 05:24:10;;;;;;;11.15;3.60;;;17.80;62.00;;;;;;21166166;28;20055;-59
2022/10/27 05:34:12;;;;;;;10.13;3.55;;;17.70;61.80;;;;;;21174854;28;20055;-61
2022/10/27 05:44:14;;;;;;;11.48;3.63;;;17.70;62.10;;;;;;21174689;28;20047;-60
2022/10/27 05:54:15;;;;;;;12.35;3.35;;;17.60;62.50;;;;;;21173768;28;20043;-60
2022/10/27 06:04:17;;;;;;;13.88;4.05;;;17.50;62.20;;;;;;21173788;28;20047;-59
2022/10/27 06:14:19;;;;;;;9.95;3.67;;;17.50;62.00;;;;;;21171871;28;20130;-61
2022/10/27 06:24:21;;;;;;;8.55;4.32;;;17.50;62.60;;;;;;21170811;28;20047;-60
2022/10/27 06:34:23;;;;;;;14.40;4.82;;;17.30;63.10;;;;;;21169321;28;20086;-60
2022/10/27 06:44:25;;;;;;;13.63;4.25;;;17.20;63.10;;;;;;21169489;28;20077;-59
2022/10/27 06:54:27;;;;;;;12.75;3.75;;;17.20;63.10;;;;;;21168298;28;20482;-60
2022/10/27 07:04:29;;;;;;;16.67;6.30;;;17.10;63.00;;;;;;21166884;28;20073;-60
2022/10/27 07:14:31;;;;;;;25.55;6.07;;;17.20;62.70;;;;;;21166715;28;20051;-59
2022/10/27 07:24:33;;;;;;;13.45;4.47;;;17.20;62.10;;;;;;21166342;28;20048;-59
2022/10/27 07:34:35;;;;;;;26.40;6.05;;;17.30;61.30;;;;;;21165261;28;20044;-60
2022/10/27 07:44:38;;;;;;;66.72;36.03;;;17.50;61.00;;;;;;21162419;28;20051;-59
2022/10/27 07:54:40;;;;;;;39.97;7.83;;;17.70;60.70;;;;;;21161551;28;20047;-58
2022/10/27 08:04:41;;;;;;;19.95;5.45;;;17.70;60.50;;;;;;21161177;28;20506;-60
2022/10/27 08:14:43;;;;;;;17.63;5.55;;;17.80;60.30;;;;;;21160681;28;20087;-61
2022/10/27 08:24:45;;;;;;;26.80;5.97;;;17.90;60.00;;;;;;21161385;28;20479;-61
2022/10/27 08:34:47;;;;;;;19.85;4.63;;;18.00;59.60;;;;;;21142904;28;20048;-59
2022/10/27 08:44:58;;;;;;;20.52;5.40;;;18.00;59.10;;;;;;21160562;28;20040;-61
2022/10/27 08:55:12;;;;;;;14.75;5.30;;;18.30;58.70;;;;;;21160558;28;20043;-59
2022/10/27 09:05:32;;;;;;;19.70;6.82;;;18.60;58.40;;;;;;21175927;28;20123;-59
2022/10/27 09:15:50;;;;;;;28.40;7.13;;;19.10;57.10;;;;;;21174313;28;20100;-59
2022/10/27 09:25:53;;;;;;;22.17;7.45;;;19.50;55.20;;;;;;21172576;28;20074;-59
2022/10/27 09:35:56;;;;;;;28.00;7.63;;;19.80;53.70;;;;;;21173384;28;20058;-62
2022/10/27 09:46:03;;;;;;;;;;;20.20;53.20;;;;;;21155215;28;20503;-60
2022/10/27 09:56:12;;;;;;;17.73;4.65;;;20.40;52.40;;;;;;21173189;28;19919;-59
2022/10/27 10:06:33;;;;;;;20.73;4.80;;;20.70;46.60;;;;;;21172086;28;20047;-61
2022/10/27 10:16:35;;;;;;;18.40;4.22;;;21.20;44.60;;;;;;21171255;28;20535;-64
2022/10/27 10:26:37;;;;;;;15.23;4.28;;;21.40;43.10;;;;;;21170019;28;20074;-61
2022/10/27 10:36:40;;;;;;;17.27;4.05;;;21.70;42.50;;;;;;21168575;28;20056;-59
2022/10/27 10:46:52;;;;;;;16.52;4.10;;;22.00;40.80;;;;;;21167700;28;20048;-59
2022/10/27 10:56:54;;;;;;;18.93;5.23;;;22.20;40.40;;;;;;21167192;28;20540;-59
2022/10/27 11:07:02;;;;;;;12.37;3.60;;;22.40;39.40;;;;;;21166663;28;20126;-61
2022/10/27 11:17:06;;;;;;;16.65;4.53;;;22.60;41.60;;;;;;21165295;28;20059;-61
2022/10/27 11:27:15;;;;;;;12.23;4.45;;;22.80;39.30;;;;;;21165271;28;20501;-59
2022/10/27 11:37:30;;;;;;;12.45;4.00;;;23.00;40.50;;;;;;21165037;28;20054;-60
2022/10/27 11:47:39;;;;;;;14.73;3.92;;;23.10;38.80;;;;;;21164226;28;20130;-60
2022/10/27 11:57:59;;;;;;;14.90;4.13;;;23.20;38.00;;;;;;21164369;28;20337;-61
2022/10/27 12:08:35;;;;;;;27.88;4.72;;;23.40;38.20;;;;;;21163556;28;20058;-58
2022/10/27 12:19:12;;;;;;;15.07;4.78;;;23.60;38.00;;;;;;21162717;28;20564;-62
2022/10/27 12:29:15;;;;;;;12.13;4.30;;;23.80;36.20;;;;;;21149099;28;20134;-59
2022/10/27 12:39:32;;;;;;;;;;;24.10;37.30;;;;;;21178600;28;20063;-61
2022/10/27 12:50:11;;;;;;;13.02;4.95;;;24.10;35.90;;;;;;21177522;28;19923;-61
2022/10/27 13:00:16;;;;;;;13.65;4.30;;;24.30;35.80;;;;;;21176891;28;20070;-59
2022/10/27 13:10:58;;;;;;;13.88;4.82;;;24.30;35.60;;;;;;21177837;28;20078;-62
2022/10/27 13:21:02;;;;;;;13.97;5.73;;;24.50;33.90;;;;;;21171832;28;20075;-59
2022/10/27 13:31:18;;;;;;;19.25;5.28;;;24.40;34.10;;;;;;21174748;28;20047;-62
2022/10/27 13:41:57;;;;;;;16.35;6.13;;;24.50;33.50;;;;;;21173841;28;20051;-62
2022/10/27 13:52:15;;;;;;;37.25;6.07;;;24.50;34.00;;;;;;21173159;28;20092;-58
2022/10/27 14:02:29;;;;;;;15.55;5.70;;;24.50;34.10;;;;;;21173238;28;20104;-61
2022/10/27 14:12:33;;;;;;;20.27;5.13;;;24.50;35.00;;;;;;21171474;28;20051;-62
2022/10/27 14:22:39;;;;;;;15.88;4.18;;;24.40;35.80;;;;;;21170374;28;20071;-62
2022/10/27 14:32:41;;;;;;;10.13;3.55;;;24.60;35.20;;;;;;21170859;28;20047;-64
2022/10/27 14:42:44;;;;;;;12.53;4.23;;;24.50;35.70;;;;;;21170231;28;20048;-61
2022/10/27 14:52:48;;;;;;;13.93;4.30;;;24.50;35.20;;;;;;21168270;28;20101;-60
2022/10/27 15:02:51;;;;;;;17.58;4.40;;;24.40;35.10;;;;;;21167504;28;20055;-63
2022/10/27 15:12:56;;;;;;;12.80;4.40;;;24.60;34.90;;;;;;21166825;28;20043;-60
2022/10/27 15:22:58;;;;;;;15.77;4.50;;;24.40;33.80;;;;;;21166908;28;20054;-61
2022/10/27 15:33:00;;;;;;;29.97;5.07;;;24.30;34.40;;;;;;21165037;28;20043;-59
2022/10/27 15:43:17;;;;;;;19.98;5.38;;;24.30;35.30;;;;;;21165902;28;20090;-60
2022/10/27 15:53:19;;;;;;;18.48;4.53;;;24.20;36.00;;;;;;21165219;28;20479;-61
2022/10/27 16:03:28;;;;;;;12.00;3.10;;;24.20;36.20;;;;;;21165466;28;20051;-60
2022/10/27 16:13:30;;;;;;;13.50;4.30;;;24.10;35.70;;;;;;21163420;28;20048;-63
2022/10/27 16:23:32;;;;;;;14.20;4.15;;;23.90;35.50;;;;;;21162764;28;20130;-64
2022/10/27 16:33:34;;;;;;;18.80;4.20;;;23.70;35.80;;;;;;21162759;28;20048;-62
2022/10/27 16:43:36;;;;;;;14.37;3.77;;;23.70;35.40;;;;;;21161230;28;20063;-61
2022/10/27 16:53:38;;;;;;;26.45;5.53;;;23.40;36.10;;;;;;21147099;28;20051;-65
2022/10/27 17:03:40;;;;;;;15.13;4.80;;;23.40;37.70;;;;;;21143741;28;20047;-65
2022/10/27 17:13:41;;;;;;;14.02;4.60;;;23.40;39.40;;;;;;21139963;28;20388;-63
2022/10/27 17:23:44;;;;;;;15.47;5.00;;;23.30;43.20;;;;;;21134124;28;20548;-62
2022/10/27 17:33:46;;;;;;;21.00;5.28;;;23.30;43.30;;;;;;21128660;28;20134;-64
2022/10/27 17:43:50;;;;;;;14.53;5.70;;;23.30;42.50;;;;;;21161439;28;20056;-65
2022/10/27 17:53:53;;;;;;;15.30;6.38;;;23.40;43.20;;;;;;21152916;28;20116;-63
2022/10/27 18:04:00;;;;;;;19.20;5.33;;;23.50;42.70;;;;;;21117920;28;20503;-64
2022/10/27 18:14:04;;;;;;;21.65;8.05;;;23.50;42.40;;;;;;21101983;28;20096;-61
2022/10/27 18:24:08;;;;;;;22.77;5.95;;;23.50;43.40;;;;;;21157332;28;20078;-60
2022/10/27 18:34:13;;;;;;;21.02;7.00;;;23.50;44.60;;;;;;21148104;28;20131;-64
2022/10/27 18:44:14;;;;;;;29.50;7.80;;;23.40;45.30;;;;;;21158016;27;20142;-62
2022/10/27 18:54:16;;;;;;;20.97;8.23;;;23.20;45.40;;;;;;21167864;28;20044;-62
2022/10/27 19:04:18;;;;;;;27.20;14.23;;;23.00;45.00;;;;;;21167212;28;20138;-62
2022/10/27 19:14:20;;;;;;;19.65;6.50;;;22.70;44.10;;;;;;21168392;28;20120;-62
2022/10/27 19:24:21;;;;;;;19.00;8.23;;;22.60;41.80;;;;;;21167194;28;20143;-62
2022/10/27 19:34:23;;;;;;;16.73;7.77;;;22.50;41.50;;;;;;21169038;28;20070;-63
2022/10/27 19:44:26;;;;;;;16.43;9.60;;;22.40;40.80;;;;;;21165874;28;20106;-67
2022/10/27 19:54:27;;;;;;;26.13;12.43;;;22.40;42.40;;;;;;21165014;28;20442;-62
2022/10/27 20:04:29;;;;;;;19.55;11.10;;;22.20;44.10;;;;;;21164916;28;20052;-61
2022/10/27 20:14:33;;;;;;;22.77;11.05;;;22.10;44.60;;;;;;21145498;28;20083;-64
2022/10/27 20:24:34;;;;;;;16.23;6.43;;;22.00;44.80;;;;;;21163349;28;20060;-63
2022/10/27 20:34:36;;;;;;;12.38;5.00;;;21.60;46.10;;;;;;21163270;28;20044;-62
2022/10/27 20:44:38;;;;;;;21.60;7.30;;;21.30;48.20;;;;;;21162493;28;20044;-62
2022/10/27 20:54:39;;;;;;;15.50;5.68;;;21.10;49.80;;;;;;21168470;28;20384;-63
2022/10/27 21:04:41;;;;;;;13.40;4.50;;;20.80;50.90;;;;;;21178063;28;20044;-62
2022/10/27 21:14:43;;;;;;;12.52;5.78;;;20.70;51.00;;;;;;21178675;28;20043;-62
2022/10/27 21:24:45;;;;;;;13.45;5.55;;;20.60;51.30;;;;;;21177950;28;20077;-62
2022/10/27 21:34:47;;;;;;;15.90;4.85;;;20.40;52.40;;;;;;21176385;28;20471;-62
2022/10/27 21:44:49;;;;;;;13.57;5.13;;;20.20;53.50;;;;;;21174126;28;20056;-62
2022/10/27 21:54:50;;;;;;;14.27;4.38;;;19.90;54.10;;;;;;21174701;28;20053;-63
2022/10/27 22:04:53;;;;;;;19.73;5.07;;;19.80;53.90;;;;;;21173027;28;20052;-62
2022/10/27 22:14:55;;;;;;;13.70;4.40;;;19.70;54.00;;;;;;21173112;28;20059;-61
2022/10/27 22:24:58;;;;;;;14.13;4.37;;;19.60;54.60;;;;;;21171183;28;20051;-61
2022/10/27 22:35:02;;;;;;;14.85;4.88;;;19.50;55.20;;;;;;21170317;28;20044;-62
2022/10/27 22:45:05;;;;;;;11.07;4.63;;;19.30;55.60;;;;;;21170046;28;20052;-62
2022/10/27 22:55:07;;;;;;;;;;;19.20;56.50;;;;;;21170100;28;20099;-62
2022/10/27 23:05:09;;;;;;;11.82;4.25;;;19.10;56.30;;;;;;21168895;28;20383;-62
2022/10/27 23:15:11;;;;;;;12.70;4.03;;;19.10;56.10;;;;;;21166601;28;20082;-62
2022/10/27 23:25:13;;;;;;;13.55;4.68;;;19.20;55.50;;;;;;21167758;28;20498;-62
2022/10/27 23:35:14;;;;;;;12.82;4.07;;;19.20;55.20;;;;;;21166550;28;20384;-63
2022/10/27 23:45:16;;;;;;;13.40;4.43;;;19.20;55.50;;;;;;21164422;28;20055;-63
2022/10/27 23:55:18;;;;;;;11.50;4.65;;;19.20;55.90;;;;;;21164715;28;20522;-62
